Time;durP1;ratioP1;P1;durP2;ratioP2;P2;SDS_P1;SDS_P2;PMS_P1;PMS_P2;Temp;Humidity;BMP_temperature;BMP_pressure;BME280_temperature;BME280_humidity;BME280_pressure;Samples;Min_cycle;Max_cycle;Signal;HPM_P1;HPM_P2
2020/12/03 00:00:45;;;;;;;50.87;29.63;;;-3.70;99.90;;;-6.44;100.00;100176.63;5030772;27;100039;-60
2020/12/03 00:03:22;;;;;;;59.37;31.70;;;-3.60;99.90;;;-6.40;100.00;100180.81;5030260;27;100227;-61
2020/12/03 00:05:56;;;;;;;40.87;24.33;;;-3.60;99.90;;;-6.06;100.00;100170.91;5030053;27;100828;-62
2020/12/03 00:08:22;;;;;;;51.73;28.77;;;-3.60;99.90;;;-6.12;100.00;100172.84;5030714;27;100463;-62
2020/12/03 00:10:49;;;;;;;55.53;30.20;;;-3.70;99.90;;;-6.14;100.00;100174.66;5030036;27;100338;-61
2020/12/03 00:13:21;;;;;;;46.30;26.53;;;-3.50;99.90;;;-5.72;100.00;100173.03;5030010;27;100472;-62
2020/12/03 00:15:53;;;;;;;49.17;27.53;;;-3.60;99.90;;;-5.67;100.00;100172.84;5030093;27;100398;-62
2020/12/03 00:18:21;;;;;;;52.77;28.30;;;-3.50;99.90;;;-5.99;100.00;100167.13;5030001;27;101013;-61
2020/12/03 00:20:48;;;;;;;51.93;28.33;;;-3.40;99.90;;;-6.02;100.00;100155.97;5030040;27;100479;-59
2020/12/03 00:23:15;;;;;;;53.23;29.87;;;-3.40;99.90;;;-6.11;100.00;100149.38;5030031;27;100236;-60
2020/12/03 00:25:42;;;;;;;44.33;26.63;;;-3.20;99.90;;;-6.09;100.00;100157.97;5030698;27;102011;-60
2020/12/03 00:28:09;;;;;;;54.40;29.70;;;-3.30;99.90;;;-6.13;100.00;100158.13;5029339;27;100984;-60
2020/12/03 00:30:35;;;;;;;50.10;28.97;;;-3.30;99.90;;;-6.21;100.00;100154.06;5030643;27;100151;-61
2020/12/03 00:33:02;;;;;;;50.53;30.23;;;-3.20;99.90;;;-6.23;100.00;100160.22;5030212;27;100064;-60
2020/12/03 00:35:29;;;;;;;55.73;29.77;;;-3.50;99.90;;;-6.19;100.00;100154.03;5029272;27;100775;-62
2020/12/03 00:37:55;;;;;;;59.13;31.90;;;-3.30;99.90;;;-6.17;100.00;100154.78;5029305;27;100636;-61
2020/12/03 00:40:23;;;;;;;56.43;31.43;;;-3.40;99.90;;;-6.11;100.00;100144.16;5029240;27;100050;-61
2020/12/03 00:42:55;;;;;;;52.87;28.83;;;-3.30;99.90;;;-6.05;100.00;100145.66;5029996;27;100086;-61
2020/12/03 00:45:22;;;;;;;57.23;31.30;;;-3.40;99.90;;;-5.98;100.00;100145.41;5028753;27;101471;-61
2020/12/03 00:47:48;;;;;;;46.77;27.70;;;-3.30;99.90;;;-5.87;100.00;100148.41;5028784;27;100349;-60
2020/12/03 00:50:16;;;;;;;50.73;28.00;;;-3.30;99.90;;;-5.84;100.00;100142.25;5029496;27;99994;-61
2020/12/03 00:52:44;;;;;;;53.63;30.13;;;-3.20;99.90;;;-5.80;100.00;100146.41;5028089;27;100174;-61
2020/12/03 00:55:11;;;;;;;54.70;30.17;;;-3.20;99.90;;;-5.83;100.00;100144.78;5026471;27;103100;-61
2020/12/03 00:57:39;;;;;;;57.10;30.73;;;-3.20;99.90;;;-5.81;100.00;100140.34;5026954;27;100443;-60
2020/12/03 01:00:08;;;;;;;51.00;30.47;;;-3.20;99.90;;;-5.83;100.00;100129.16;5044234;27;100558;-61
2020/12/03 01:02:34;;;;;;;52.73;29.53;;;-3.10;99.90;;;-5.88;100.00;100125.84;5030115;27;100125;-60
2020/12/03 01:05:01;;;;;;;55.43;29.60;;;-3.10;99.90;;;-5.90;100.00;100130.31;5028350;27;101470;-60
2020/12/03 01:07:27;;;;;;;54.33;29.43;;;-3.20;99.90;;;-5.84;100.00;100124.84;5029026;27;100203;-61
2020/12/03 01:09:54;;;;;;;58.20;29.83;;;-3.10;99.90;;;-5.75;100.00;100128.00;5029539;27;100436;-61
2020/12/03 01:12:21;;;;;;;55.53;30.47;;;-3.20;99.90;;;-5.66;100.00;100133.69;5029223;27;99986;-60
2020/12/03 01:14:47;;;;;;;54.23;29.03;;;-3.20;99.90;;;-5.61;100.00;100129.16;5028708;27;101017;-62
2020/12/03 01:17:16;;;;;;;53.83;29.63;;;-3.20;99.90;;;-5.59;100.00;100126.50;5028855;27;100424;-60
2020/12/03 01:19:43;;;;;;;53.23;29.93;;;-3.20;99.90;;;-5.54;100.00;100130.59;5028878;27;99859;-61
2020/12/03 01:22:09;;;;;;;53.50;29.17;;;-3.00;99.90;;;-5.55;100.00;100141.06;5030227;27;99910;-62
2020/12/03 01:24:36;;;;;;;54.30;31.17;;;-3.10;99.90;;;-5.52;100.00;100125.31;5028560;27;100529;-61
2020/12/03 01:27:04;;;;;;;56.53;31.07;;;-3.10;99.90;;;-5.55;100.00;100126.28;5029024;27;100564;-62
2020/12/03 01:29:30;;;;;;;51.83;30.53;;;-3.10;99.90;;;-5.58;100.00;100118.63;5028562;27;100239;-60
2020/12/03 01:31:57;;;;;;;54.33;30.33;;;-3.00;99.90;;;-5.52;100.00;100117.50;5029558;27;100165;-61
2020/12/03 01:34:23;;;;;;;54.53;31.77;;;-3.00;99.90;;;-5.53;100.00;100110.59;5042745;27;103506;-60
2020/12/03 01:36:50;;;;;;;50.60;30.37;;;-3.00;99.90;;;-5.53;100.00;100107.97;5029011;27;100154;-60
2020/12/03 01:39:17;;;;;;;50.57;29.90;;;-3.00;99.90;;;-5.57;100.00;100103.81;5029448;27;100068;-61
2020/12/03 01:41:44;;;;;;;56.93;30.87;;;-3.20;99.90;;;-5.58;100.00;100102.97;5029571;27;100145;-59
2020/12/03 01:44:11;;;;;;;51.93;30.03;;;-3.10;99.90;;;-5.52;100.00;100094.03;5028128;27;101648;-60
2020/12/03 01:46:39;;;;;;;54.43;30.00;;;-3.00;99.90;;;-5.58;100.00;100094.31;5028229;27;100848;-61
2020/12/03 01:49:13;;;;;;;49.87;29.57;;;-2.00;99.90;;;-5.56;100.00;100092.44;5028416;27;100119;-61
2020/12/03 01:51:42;;;;;;;49.33;30.57;;;-3.10;99.90;;;-5.52;100.00;100089.66;5028692;27;100377;-60
2020/12/03 01:54:12;;;;;;;56.43;30.27;;;-3.10;99.90;;;-5.49;100.00;100086.09;5028273;27;100748;-60
2020/12/03 01:56:54;;;;;;;55.13;31.90;;;-3.20;99.90;;;-5.42;100.00;100087.53;5027537;27;102134;-61
2020/12/03 01:59:24;;;;;;;52.57;30.83;;;-3.10;99.90;;;-5.48;100.00;100074.75;5031743;27;100307;-60
2020/12/03 02:01:50;;;;;;;54.03;29.70;;;-3.10;99.90;;;-5.50;100.00;100067.00;5032701;27;100189;-62
2020/12/03 02:04:16;;;;;;;57.57;33.33;;;-3.00;99.90;;;-5.44;100.00;100060.69;5032126;27;100620;-60
2020/12/03 02:06:43;;;;;;;55.57;31.60;;;-3.00;99.90;;;-5.43;100.00;100063.22;5031339;27;100666;-60
2020/12/03 02:09:13;;;;;;;58.23;32.80;;;-3.10;99.90;;;-5.45;100.00;100062.47;5032153;27;99902;-59
2020/12/03 02:11:40;;;;;;;60.27;33.40;;;-3.10;99.90;;;-5.49;100.00;100060.03;5032284;27;100297;-62
2020/12/03 02:14:11;;;;;;;56.23;34.30;;;-3.10;99.90;;;-5.43;100.00;100059.75;5031555;27;101139;-60
2020/12/03 02:16:41;;;;;;;62.23;34.47;;;-3.20;99.90;;;-5.40;100.00;100064.00;5030907;27;101087;-60
2020/12/03 02:19:20;;;;;;;65.57;35.23;;;-3.10;99.90;;;-5.39;100.00;100060.50;5032236;27;99991;-61
2020/12/03 02:21:54;;;;;;;62.87;35.10;;;-3.00;99.90;;;-5.42;100.00;100054.47;5033645;27;100170;-61
2020/12/03 02:24:22;;;;;;;65.40;36.87;;;-3.10;99.90;;;-5.43;100.00;100044.97;5034092;27;100820;-61
2020/12/03 02:26:50;;;;;;;63.27;35.10;;;-3.20;99.90;;;-5.44;100.00;100042.44;5031665;27;100592;-60
2020/12/03 02:29:19;;;;;;;71.97;37.93;;;-3.10;99.90;;;-5.47;100.00;100047.78;5032177;27;99862;-61
2020/12/03 02:31:46;;;;;;;65.70;37.70;;;-3.20;99.90;;;-5.49;100.00;100047.00;5032381;27;100049;-62
2020/12/03 02:34:13;;;;;;;67.30;37.10;;;-3.10;99.90;;;-5.49;100.00;100041.78;5031572;27;100908;-62
2020/12/03 02:36:40;;;;;;;66.63;37.97;;;-3.30;99.90;;;-5.54;100.00;100041.97;5031686;27;100186;-61
2020/12/03 02:39:07;;;;;;;64.00;37.43;;;-3.20;99.90;;;-5.57;100.00;100030.84;5031288;27;100161;-61
2020/12/03 02:41:34;;;;;;;64.70;35.77;;;-3.30;99.90;;;-5.59;100.00;100028.28;5031679;27;100203;-61
2020/12/03 02:44:01;;;;;;;65.67;35.83;;;-3.20;99.90;;;-5.62;100.00;100012.75;5031115;27;100752;-62
2020/12/03 02:46:27;;;;;;;71.37;36.77;;;-3.30;99.90;;;-5.61;100.00;100013.63;5030690;27;100381;-61
2020/12/03 02:48:54;;;;;;;60.70;35.03;;;-3.40;99.90;;;-5.62;100.00;100009.31;5031732;27;100135;-62
2020/12/03 02:51:20;;;;;;;73.73;38.13;;;-3.40;99.90;;;-5.62;100.00;100011.91;5032207;27;100073;-62
2020/12/03 02:53:47;;;;;;;68.00;36.77;;;-3.30;99.90;;;-5.62;100.00;100010.16;5031035;27;100795;-62
2020/12/03 02:56:15;;;;;;;67.53;36.83;;;-3.30;99.90;;;-5.64;100.00;100008.53;5030635;27;100270;-61
2020/12/03 02:58:41;;;;;;;61.70;35.67;;;-3.30;99.90;;;-5.65;100.00;100002.47;5031266;27;100158;-61
2020/12/03 03:01:07;;;;;;;74.40;40.00;;;-3.30;99.90;;;-5.64;100.00;100005.91;5031116;27;100009;-61
2020/12/03 03:03:34;;;;;;;72.27;38.73;;;-3.30;99.90;;;-5.65;100.00;99992.03;5030947;27;100782;-62
2020/12/03 03:06:00;;;;;;;67.13;37.83;;;-3.40;99.90;;;-5.68;100.00;99984.34;5030644;27;100190;-61
2020/12/03 03:08:27;;;;;;;73.77;40.33;;;-3.40;99.90;;;-5.66;100.00;99985.13;5030932;27;100102;-60
2020/12/03 03:10:53;;;;;;;72.60;39.13;;;-3.40;99.90;;;-5.69;100.00;99985.28;5030666;27;100151;-61
2020/12/03 03:13:21;;;;;;;73.83;37.80;;;-3.40;99.90;;;-5.73;100.00;99978.47;5030985;27;100649;-62
2020/12/03 03:15:48;;;;;;;73.07;40.27;;;-3.50;99.90;;;-5.78;100.00;99973.44;5030884;27;100606;-61
2020/12/03 03:18:14;;;;;;;71.10;39.87;;;-3.40;99.90;;;-5.78;100.00;99977.81;5031342;27;99785;-60
2020/12/03 03:20:41;;;;;;;75.10;39.90;;;-3.40;99.90;;;-5.73;100.00;99975.03;5031257;27;100074;-62
2020/12/03 03:23:08;;;;;;;73.47;39.00;;;-3.40;99.90;;;-5.72;100.00;99969.75;5030521;27;101647;-62
2020/12/03 03:25:34;;;;;;;77.93;41.37;;;-3.50;99.90;;;-5.78;100.00;99973.44;5030883;27;100701;-61
2020/12/03 03:28:01;;;;;;;73.33;41.30;;;-3.60;99.90;;;-5.75;100.00;99961.22;5046300;27;100130;-60
2020/12/03 03:30:28;;;;;;;69.67;39.93;;;-3.20;99.90;;;-5.79;100.00;99957.88;5030428;27;100034;-61
2020/12/03 03:32:54;;;;;;;72.70;40.00;;;-3.60;99.90;;;-5.76;100.00;99951.69;5030554;27;100956;-61
2020/12/03 03:35:21;;;;;;;71.93;36.97;;;-3.50;99.90;;;-5.78;100.00;99951.75;5030031;27;101134;-61
2020/12/03 03:37:49;;;;;;;75.23;38.47;;;-3.50;99.90;;;-5.81;100.00;99944.91;5030598;27;100104;-61
2020/12/03 03:40:15;;;;;;;80.13;39.03;;;-3.50;99.90;;;-5.81;100.00;99946.69;5030693;27;100115;-61
2020/12/03 03:42:43;;;;;;;73.13;37.87;;;-3.60;99.90;;;-5.82;100.00;99948.44;5029676;27;101378;-61
2020/12/03 03:45:11;;;;;;;77.27;39.60;;;-3.60;99.90;;;-5.82;100.00;99945.00;5030366;27;100489;-61
2020/12/03 03:47:39;;;;;;;74.93;40.23;;;-3.60;99.90;;;-5.84;100.00;99937.25;5030070;27;99948;-62
2020/12/03 03:50:07;;;;;;;74.07;39.60;;;-5.30;99.90;;;-5.86;100.00;99936.44;5031084;27;100103;-61
2020/12/03 03:52:34;;;;;;;74.43;39.07;;;-3.60;99.90;;;-5.87;100.00;99939.13;5029938;27;100797;-62
2020/12/03 03:55:01;;;;;;;73.63;38.73;;;-3.60;99.90;;;-5.88;100.00;99932.25;5030245;27;99995;-61
2020/12/03 03:57:27;;;;;;;78.97;41.03;;;-3.50;99.90;;;-5.88;100.00;99924.44;5029888;27;100175;-62
2020/12/03 03:59:54;;;;;;;69.93;39.17;;;-3.50;99.90;;;-5.87;100.00;99929.53;5029727;27;99907;-62
2020/12/03 04:02:22;;;;;;;70.87;38.80;;;-3.60;99.90;;;-5.82;100.00;99917.19;5029823;27;100945;-61
2020/12/03 04:04:50;;;;;;;76.03;41.80;;;-3.50;99.90;;;-5.82;100.00;99911.97;5029742;27;100570;-61
2020/12/03 04:07:18;;;;;;;66.30;37.60;;;-3.50;99.90;;;-5.77;100.00;99916.97;5030013;27;100243;-60
2020/12/03 04:09:46;;;;;;;73.67;39.13;;;-3.40;99.90;;;-5.78;100.00;99913.50;5030233;27;100248;-62
2020/12/03 04:12:13;;;;;;;74.43;40.30;;;-3.40;99.90;;;-5.73;100.00;99915.94;5029503;27;100135;-61
2020/12/03 04:14:40;;;;;;;68.83;38.93;;;-3.30;99.90;;;-5.73;100.00;99902.06;5029814;27;101123;-61
2020/12/03 04:17:06;;;;;;;67.87;38.77;;;-3.30;99.90;;;-5.69;100.00;99894.06;5029859;27;100389;-63
2020/12/03 04:19:33;;;;;;;74.00;37.73;;;-3.30;99.90;;;-5.66;100.00;99893.06;5030249;27;100197;-61
2020/12/03 04:22:00;;;;;;;69.67;39.07;;;-3.20;99.90;;;-5.66;100.00;99882.63;5028075;27;101358;-61
2020/12/03 04:24:26;;;;;;;68.80;39.07;;;-3.20;99.90;;;-5.63;100.00;99878.13;5029306;27;100555;-62
2020/12/03 04:26:53;;;;;;;68.60;38.13;;;-3.10;99.90;;;-5.58;100.00;99878.78;5044582;27;100079;-62
2020/12/03 04:29:19;;;;;;;70.40;38.20;;;-3.10;99.90;;;-5.57;100.00;99877.03;5030237;27;99858;-62
2020/12/03 04:31:46;;;;;;;59.67;34.00;;;-3.10;99.90;;;-5.53;100.00;99871.59;5029592;27;100622;-61
2020/12/03 04:34:13;;;;;;;71.20;37.50;;;-3.10;99.90;;;-5.50;100.00;99873.22;5029659;27;101778;-61
2020/12/03 04:36:40;;;;;;;72.00;37.33;;;-2.90;99.90;;;-5.43;100.00;99857.25;5029962;27;99952;-61
2020/12/03 04:39:08;;;;;;;67.83;39.43;;;-2.90;99.90;;;-5.39;100.00;99854.50;5030010;27;100071;-61
2020/12/03 04:41:35;;;;;;;66.30;36.00;;;-2.90;99.90;;;-5.42;100.00;99863.31;5029170;27;100826;-61
2020/12/03 04:44:09;;;;;;;69.60;36.50;;;-2.40;99.90;;;-5.40;100.00;99863.25;5029231;27;100137;-63
2020/12/03 04:46:41;;;;;;;67.80;37.10;;;-2.70;99.90;;;-5.39;100.00;99864.94;5029325;27;100134;-62
2020/12/03 04:49:28;;;;;;;75.03;40.80;;;-2.70;99.90;;;-5.34;100.00;99865.59;5029220;27;99943;-61
2020/12/03 04:52:40;;;;;;;67.13;37.23;;;-2.70;99.90;;;-5.37;100.00;99866.56;5029325;27;100024;-62
2020/12/03 04:55:19;;;;;;;65.57;39.13;;;-2.60;99.90;;;-5.37;100.00;99870.94;5029189;27;100849;-62
2020/12/03 04:57:57;;;;;;;68.50;38.30;;;-2.60;99.90;;;-5.32;100.00;99874.19;5029492;27;100140;-62
2020/12/03 05:00:39;;;;;;;71.73;37.67;;;-2.60;99.90;;;-5.34;100.00;99871.66;5044210;27;100034;-62
2020/12/03 05:03:31;;;;;;;71.60;40.53;;;-2.60;99.90;;;-5.36;100.00;99875.22;5029465;27;99879;-62
2020/12/03 05:06:27;;;;;;;72.67;40.07;;;-2.60;99.90;;;-5.33;100.00;99867.28;5027396;27;101640;-61
2020/12/03 05:09:00;;;;;;;69.60;37.57;;;-2.60;99.90;;;-5.31;100.00;99865.44;5028892;27;100037;-59
2020/12/03 05:11:31;;;;;;;75.00;39.93;;;-2.60;99.90;;;-5.28;100.00;99873.13;5029059;27;100189;-61
2020/12/03 05:14:10;;;;;;;65.10;38.57;;;-2.50;99.90;;;-5.19;100.00;99868.31;5028641;27;100863;-62
2020/12/03 05:16:50;;;;;;;67.10;38.13;;;-2.60;99.90;;;-5.21;100.00;99870.19;5029680;27;99652;-62
2020/12/03 05:19:28;;;;;;;71.63;39.53;;;-2.50;99.90;;;-5.17;100.00;99868.25;5029501;27;99570;-62
2020/12/03 05:21:56;;;;;;;64.23;35.37;;;-2.40;99.90;;;-5.14;100.00;99862.91;5029189;27;100108;-62
2020/12/03 05:24:23;;;;;;;66.63;37.17;;;-2.40;99.90;;;-5.07;100.00;99861.72;5028765;27;100962;-61
2020/12/03 05:26:50;;;;;;;64.83;36.07;;;-2.40;99.90;;;-5.12;100.00;99863.69;5027568;27;99941;-61
2020/12/03 05:29:17;;;;;;;71.83;39.83;;;-2.40;99.90;;;-5.11;100.00;99865.38;5031576;27;100110;-62
2020/12/03 05:31:45;;;;;;;67.80;36.27;;;-2.30;99.90;;;-5.16;100.00;99862.13;5029380;27;100090;-62
2020/12/03 05:34:14;;;;;;;60.37;36.47;;;-2.30;99.90;;;-5.07;100.00;99869.56;5035615;27;100505;-61
2020/12/03 05:36:57;;;;;;;63.23;34.70;;;-2.40;99.90;;;-5.03;100.00;99858.03;5033141;27;101603;-64
2020/12/03 05:39:29;;;;;;;65.33;34.50;;;-2.30;99.90;;;-5.04;100.00;99858.97;5035120;27;99660;-60
2020/12/03 05:42:02;;;;;;;72.13;36.57;;;-2.30;99.90;;;-5.06;100.00;99856.41;5032983;27;100054;-62
2020/12/03 05:44:41;;;;;;;62.70;34.43;;;-2.30;99.90;;;-5.02;100.00;99859.75;5030011;27;100600;-61
2020/12/03 05:47:21;;;;;;;55.90;32.87;;;-2.30;99.90;;;-5.02;100.00;99848.44;5047003;27;102679;-61
2020/12/03 05:49:52;;;;;;;59.77;34.23;;;-2.30;99.90;;;-5.02;100.00;99851.06;5032705;27;99720;-62
2020/12/03 05:52:21;;;;;;;65.20;35.80;;;-2.30;99.90;;;-5.02;100.00;99846.69;5032443;27;99865;-62
2020/12/03 05:55:05;;;;;;;58.93;34.77;;;-2.30;99.90;;;-4.99;100.00;99845.72;5032067;27;100843;-61
2020/12/03 05:57:36;;;;;;;62.23;34.03;;;-2.10;99.90;;;-5.00;100.00;99850.09;5032006;27;100224;-61
2020/12/03 06:00:15;;;;;;;61.83;36.00;;;-2.20;99.90;;;-4.93;100.00;99855.84;5031699;27;99989;-62
2020/12/03 06:02:54;;;;;;;63.63;33.23;;;-2.10;99.90;;;-4.88;100.00;99843.44;5032377;27;100012;-61
2020/12/03 06:05:31;;;;;;;55.90;33.10;;;-2.10;99.90;;;-4.65;100.00;99842.34;5031799;27;100644;-61
2020/12/03 06:08:22;;;;;;;55.97;32.17;;;-2.20;99.90;;;-4.71;100.00;99840.91;5031576;27;100498;-62
2020/12/03 06:11:08;;;;;;;59.10;34.43;;;-2.10;99.90;;;-4.85;100.00;99849.38;5027472;27;100041;-61
2020/12/03 06:14:13;;;;;;;62.23;34.67;;;-1.80;99.90;;;-4.86;100.00;99847.69;5026976;27;100092;-62
2020/12/03 06:16:44;;;;;;;58.53;33.43;;;-2.10;99.90;;;-4.89;100.00;99847.81;5026662;27;101094;-62
2020/12/03 06:19:46;;;;;;;61.47;34.07;;;-2.20;99.90;;;-4.82;100.00;99851.00;5029248;27;100634;-60
2020/12/03 06:22:23;;;;;;;60.13;33.97;;;-2.00;99.90;;;-4.83;100.00;99851.91;5027692;27;100021;-61
2020/12/03 06:25:22;;;;;;;60.20;33.83;;;-1.80;99.90;;;-4.83;100.00;99846.69;5027922;27;100221;-61
2020/12/03 06:28:25;;;;;;;61.70;34.80;;;-1.90;99.90;;;-4.76;100.00;99851.53;5030167;27;99958;-61
2020/12/03 06:31:00;;;;;;;56.17;32.93;;;-1.70;99.90;;;-4.76;100.00;99848.09;5030785;27;101362;-61
2020/12/03 06:33:41;;;;;;;60.07;33.70;;;-2.10;99.90;;;-4.66;100.00;99843.25;5031416;27;100017;-61
2020/12/03 06:36:26;;;;;;;60.30;33.70;;;-1.90;99.90;;;-4.48;100.00;99842.38;5031337;27;100329;-63
2020/12/03 06:39:25;;;;;;;58.27;33.10;;;-1.90;99.90;;;-4.39;100.00;99842.78;5031192;27;100553;-63
2020/12/03 06:41:58;;;;;;;56.20;32.27;;;-2.10;99.90;;;-4.32;100.00;99832.84;5030983;27;100989;-60
2020/12/03 06:44:34;;;;;;;53.50;31.87;;;-1.80;99.90;;;-4.27;100.00;99832.66;5030328;27;100072;-62
2020/12/03 06:47:49;;;;;;;58.43;33.57;;;-1.80;99.90;;;-4.15;100.00;99827.66;5031452;27;100164;-62
2020/12/03 06:50:34;;;;;;;57.90;31.73;;;-1.70;99.90;;;-4.14;100.00;99818.91;5045884;27;102753;-61
2020/12/03 06:53:23;;;;;;;57.20;31.70;;;-1.70;99.90;;;-4.12;100.00;99816.22;5031243;27;100833;-63
2020/12/03 06:56:30;;;;;;;58.07;34.90;;;-1.60;99.90;;;-3.93;100.00;99808.25;5031698;27;100037;-62
2020/12/03 06:59:30;;;;;;;85.97;54.03;;;-1.60;99.90;;;-4.01;100.00;99804.28;5031768;27;100010;-63
2020/12/03 07:03:12;;;;;;;92.93;58.27;;;-1.60;99.90;;;-3.89;100.00;99801.97;5030814;27;101209;-62
2020/12/03 07:06:30;;;;;;;84.17;51.30;;;-1.50;99.90;;;-3.85;100.00;99816.56;5030385;27;100922;-62
2020/12/03 07:09:43;;;;;;;62.37;37.23;;;-1.40;99.90;;;-3.78;100.00;99810.09;5028749;27;99879;-61
2020/12/03 07:12:29;;;;;;;58.37;34.13;;;-1.50;99.90;;;-3.77;100.00;99810.00;5031383;27;100115;-61
2020/12/03 07:16:04;;;;;;;55.63;32.70;;;-1.40;99.90;;;-3.72;100.00;99805.41;5030573;27;101155;-63
2020/12/03 07:19:20;;;;;;;54.67;31.77;;;-1.30;99.90;;;-3.69;100.00;99794.75;5008178;27;100406;-62
2020/12/03 07:22:12;;;;;;;51.83;29.83;;;-0.40;99.90;;;-3.64;100.00;99791.91;5031842;27;99767;-61
2020/12/03 07:24:43;;;;;;;50.33;29.90;;;-1.30;99.90;;;-3.61;100.00;99791.75;5031055;27;101533;-61
2020/12/03 07:27:55;;;;;;;55.07;31.53;;;-1.20;99.90;;;-3.57;100.00;99789.81;5030602;27;100767;-62
2020/12/03 07:30:45;;;;;;;57.23;31.80;;;-1.20;99.90;;;-3.55;100.00;99787.97;5045210;27;100878;-62
2020/12/03 07:33:23;;;;;;;50.27;30.37;;;-1.30;99.90;;;-3.49;100.00;99783.25;5031039;27;100017;-61
2020/12/03 07:36:10;;;;;;;53.63;30.83;;;-1.00;99.90;;;-3.43;100.00;99782.91;5031320;27;100041;-63
2020/12/03 07:38:41;;;;;;;48.83;30.03;;;-1.10;99.90;;;-3.38;100.00;99778.28;5030460;27;99991;-61
2020/12/03 07:41:16;;;;;;;57.57;32.30;;;-1.10;99.90;;;-3.34;100.00;99781.59;5029963;27;100337;-62
2020/12/03 07:43:43;;;;;;;54.07;31.17;;;-1.10;99.90;;;-3.38;100.00;99775.69;5030647;27;100193;-62
2020/12/03 07:46:37;;;;;;;51.97;30.47;;;-1.00;99.90;;;-3.36;100.00;99780.84;5029934;27;100085;-61
2020/12/03 07:49:05;;;;;;;50.23;30.37;;;-1.00;99.90;;;-3.37;100.00;99776.53;5029541;27;100011;-62
2020/12/03 07:51:33;;;;;;;55.73;32.23;;;-0.90;99.90;;;-3.32;100.00;99775.34;5030354;27;100593;-62
2020/12/03 07:54:23;;;;;;;57.00;32.03;;;-0.90;99.90;;;-3.21;100.00;99776.53;5029906;27;100062;-62
2020/12/03 07:56:52;;;;;;;58.03;32.67;;;-1.00;99.90;;;-3.16;100.00;99777.97;5029930;27;100048;-62
2020/12/03 07:59:38;;;;;;;58.83;32.50;;;-0.90;99.90;;;-3.14;100.00;99765.66;5028688;27;100756;-63
2020/12/03 08:02:50;;;;;;;52.50;30.50;;;-0.90;99.90;;;-3.08;100.00;99773.13;5029928;27;101016;-62
2020/12/03 08:05:52;;;;;;;61.30;36.33;;;-0.80;99.90;;;-2.96;100.00;99766.38;5030207;27;99856;-62
2020/12/03 08:08:37;;;;;;;57.43;32.53;;;-0.60;99.90;;;-2.94;100.00;99757.50;5029989;27;101239;-63
2020/12/03 08:11:07;;;;;;;61.00;32.93;;;-0.70;99.90;;;-2.93;100.00;99753.97;5029397;27;101417;-63
2020/12/03 08:13:40;;;;;;;61.50;32.63;;;-0.70;99.90;;;-2.90;100.00;99753.81;5029557;27;102989;-61
2020/12/03 08:16:11;;;;;;;58.10;33.70;;;-0.70;99.90;;;-2.82;100.00;99761.22;5027524;27;100065;-62
2020/12/03 08:18:45;;;;;;;59.80;34.37;;;-0.60;99.90;;;-2.76;100.00;99766.13;5027804;27;100130;-63
2020/12/03 08:21:14;;;;;;;59.43;33.40;;;-0.60;99.90;;;-2.73;100.00;99770.34;5027216;27;100727;-62
2020/12/03 08:23:50;;;;;;;52.17;32.97;;;-0.60;99.90;;;-2.69;100.00;99761.38;5027933;27;100729;-63
2020/12/03 08:26:27;;;;;;;61.13;32.23;;;-0.60;99.90;;;-2.66;100.00;99746.31;5027032;27;100069;-62
2020/12/03 08:28:55;;;;;;;60.57;33.43;;;-0.50;99.90;;;-2.65;100.00;99734.06;5026977;27;99997;-63
2020/12/03 08:31:21;;;;;;;56.50;32.10;;;-0.50;99.90;;;-2.62;100.00;99736.53;5027066;27;101401;-61
2020/12/03 08:33:52;;;;;;;60.80;34.47;;;-0.30;99.90;;;-2.57;100.00;99735.31;5027568;27;101068;-63
2020/12/03 08:36:20;;;;;;;55.80;32.23;;;-0.30;99.90;;;-2.53;100.00;99743.84;5027246;27;100132;-63
2020/12/03 08:38:54;;;;;;;57.97;32.63;;;-0.30;99.90;;;-2.48;100.00;99760.16;5027154;27;100003;-63
2020/12/03 08:41:26;;;;;;;53.87;33.17;;;-0.20;99.90;;;-2.42;100.00;99767.63;5027136;27;100734;-64
2020/12/03 08:43:58;;;;;;;57.93;31.60;;;-0.40;99.90;;;-2.41;100.00;99747.53;5027212;27;100257;-63
2020/12/03 08:46:26;;;;;;;52.47;32.60;;;-0.20;99.90;;;-2.37;100.00;99749.03;5027455;27;99969;-62
2020/12/03 08:48:54;;;;;;;54.87;29.90;;;-0.20;99.90;;;-2.31;100.00;99749.50;5027192;27;100130;-62
2020/12/03 08:51:21;;;;;;;56.73;33.80;;;-0.10;99.90;;;-2.26;100.00;99747.47;5026960;27;101572;-63
2020/12/03 08:53:49;;;;;;;59.53;34.63;;;-0.10;99.90;;;-2.24;100.00;99739.53;5027033;27;100610;-62
2020/12/03 08:56:27;;;;;;;58.93;34.00;;;1.00;99.90;;;-2.23;100.00;99749.91;5027363;27;100301;-63
2020/12/03 08:59:04;;;;;;;58.87;31.17;;;-0.10;99.90;;;-2.19;100.00;99740.06;5026598;27;100389;-63
2020/12/03 09:01:33;;;;;;;55.47;31.63;;;0.00;99.90;;;-2.15;100.00;99743.38;5026492;27;100047;-64
2020/12/03 09:04:03;;;;;;;56.60;33.30;;;-0.10;99.90;;;-2.17;100.00;99736.44;5026263;27;100983;-63
2020/12/03 09:06:32;;;;;;;59.40;32.67;;;0.00;99.90;;;-2.18;100.00;99726.03;5026228;27;100348;-64
2020/12/03 09:08:59;;;;;;;54.40;31.03;;;0.10;99.90;;;-2.18;100.00;99713.78;5026565;27;100280;-62
2020/12/03 09:11:26;;;;;;;53.17;32.80;;;0.20;99.90;;;-2.17;100.00;99719.88;5026787;27;100544;-63
2020/12/03 09:13:56;;;;;;;54.80;33.10;;;0.10;99.90;;;-2.14;100.00;99713.59;5026932;27;100260;-63
2020/12/03 09:16:25;;;;;;;52.50;32.23;;;0.20;99.90;;;-2.09;100.00;99706.28;5026137;27;100101;-62
2020/12/03 09:18:52;;;;;;;59.13;32.60;;;0.10;99.90;;;-2.08;100.00;99705.34;5026788;27;99904;-62
2020/12/03 09:21:26;;;;;;;55.80;33.87;;;0.30;99.90;;;-2.08;100.00;99705.34;5026211;27;101462;-63
2020/12/03 09:23:55;;;;;;;53.07;32.97;;;0.30;99.90;;;-2.04;100.00;99701.63;5026034;27;100465;-63
2020/12/03 09:26:29;;;;;;;55.00;30.87;;;0.20;99.90;;;-2.01;100.00;99696.19;5026660;27;100221;-63
2020/12/03 09:28:57;;;;;;;55.57;34.47;;;0.20;99.90;;;-1.99;100.00;99686.47;5026848;27;100176;-63
2020/12/03 09:31:25;;;;;;;51.37;31.37;;;0.20;99.90;;;-1.98;100.00;99681.09;5026218;27;100684;-63
2020/12/03 09:33:52;;;;;;;52.13;32.13;;;0.30;99.90;;;-1.97;100.00;99674.94;5026774;27;100037;-63
2020/12/03 09:36:20;;;;;;;55.33;34.53;;;0.30;99.90;;;-1.94;100.00;99674.75;5026565;27;99967;-63
2020/12/03 09:38:48;;;;;;;56.47;34.57;;;0.30;99.90;;;-1.73;100.00;99675.19;5026226;27;100209;-62
2020/12/03 09:41:16;;;;;;;56.40;34.43;;;0.50;99.90;;;-1.68;100.00;99675.75;5026094;27;100845;-63
2020/12/03 09:43:46;;;;;;;53.67;31.27;;;0.40;99.90;;;-1.77;100.00;99657.97;5026268;27;100510;-62
2020/12/03 09:46:19;;;;;;;55.77;34.47;;;0.50;99.90;;;-1.79;100.00;99651.13;5026225;27;100230;-63
2020/12/03 09:48:47;;;;;;;52.57;31.83;;;0.60;99.90;;;-1.73;100.00;99662.06;5026132;27;100097;-62
2020/12/03 09:51:14;;;;;;;52.80;32.17;;;0.70;99.90;;;-1.70;100.00;99647.94;5025277;27;101371;-63
2020/12/03 09:53:40;;;;;;;54.07;32.63;;;0.60;99.90;;;-1.70;100.00;99646.16;5025893;27;101506;-64
2020/12/03 09:56:08;;;;;;;58.53;34.33;;;0.80;99.90;;;-1.68;100.00;99641.66;5026078;27;100410;-63
2020/12/03 09:58:34;;;;;;;55.33;33.73;;;0.70;99.90;;;-1.63;100.00;99641.38;5026593;27;100041;-63
2020/12/03 10:01:06;;;;;;;54.43;32.83;;;0.90;99.90;;;-1.59;100.00;99638.44;5026086;27;101050;-63
2020/12/03 10:04:17;;;;;;;52.80;33.87;;;0.70;99.90;;;-1.60;100.00;99634.13;5026208;27;100134;-62
2020/12/03 10:06:55;;;;;;;53.40;32.10;;;0.70;99.90;;;-1.57;100.00;99622.59;5025993;27;100278;-63
2020/12/03 10:10:11;;;;;;;52.57;32.17;;;0.70;99.90;;;-1.55;100.00;99612.88;5026094;27;99933;-63
2020/12/03 10:12:49;;;;;;;52.40;31.90;;;0.80;99.90;;;-1.53;100.00;99611.00;5025894;27;100562;-63
2020/12/03 10:15:34;;;;;;;51.87;32.50;;;1.70;99.90;;;-1.47;100.00;99603.56;5025403;27;100654;-63
2020/12/03 10:18:16;;;;;;;47.27;30.47;;;0.30;99.90;;;-1.43;100.00;99598.97;5026257;27;99808;-63
2020/12/03 10:20:43;;;;;;;48.00;30.87;;;0.90;99.90;;;-1.40;100.00;99596.13;5028649;27;100192;-63